Time;durP1;ratioP1;P1;durP2;ratioP2;P2;SDS_P1;SDS_P2;PMS_P1;PMS_P2;Temp;Humidity;BMP_temperature;BMP_pressure;BME280_temperature;BME280_humidity;BME280_pressure;Samples;Min_cycle;Max_cycle;Signal;HPM_P1;HPM_P2
2022/08/17 00:01:26;;;;;;;17.15;12.35;;;17.80;99.90;;;;;;5050677;28;20538;-50
2022/08/17 00:03:52;;;;;;;16.27;13.38;;;17.80;99.90;;;;;;5050617;28;20169;-50
2022/08/17 00:06:28;;;;;;;16.13;12.32;;;17.80;99.90;;;;;;5053418;28;20686;-50
2022/08/17 00:08:58;;;;;;;17.25;13.63;;;17.70;99.90;;;;;;5054458;28;20635;-51
2022/08/17 00:11:27;;;;;;;18.63;14.70;;;17.70;99.90;;;;;;5054388;28;20205;-50
2022/08/17 00:13:57;;;;;;;20.77;14.95;;;17.80;99.90;;;;;;5054413;28;20271;-51
2022/08/17 00:16:30;;;;;;;17.45;15.50;;;17.80;99.90;;;;;;5054322;28;20178;-51
2022/08/17 00:18:59;;;;;;;20.40;15.68;;;17.80;99.90;;;;;;5054264;28;20181;-51
2022/08/17 00:21:25;;;;;;;21.35;16.33;;;17.80;99.90;;;;;;5054293;28;20226;-51
2022/08/17 00:23:52;;;;;;;18.90;15.13;;;17.80;99.90;;;;;;5054222;28;20536;-51
2022/08/17 00:26:18;;;;;;;21.38;16.02;;;17.80;99.90;;;;;;5054232;28;20319;-50
2022/08/17 00:28:44;;;;;;;18.73;16.27;;;17.80;99.90;;;;;;5054305;28;20196;-51
2022/08/17 00:31:10;;;;;;;22.95;17.83;;;17.80;99.90;;;;;;5054080;28;20679;-50
2022/08/17 00:33:37;;;;;;;22.50;16.83;;;17.80;99.90;;;;;;5054083;28;20171;-51
2022/08/17 00:36:04;;;;;;;18.92;16.85;;;17.90;99.90;;;;;;5053972;28;20173;-50
2022/08/17 00:38:31;;;;;;;22.80;18.23;;;17.90;99.90;;;;;;5053992;28;20665;-51
2022/08/17 00:41:00;;;;;;;22.33;18.77;;;17.80;99.90;;;;;;5053763;28;20220;-51
2022/08/17 00:43:46;;;;;;;22.55;19.30;;;17.90;99.90;;;;;;5053904;28;20702;-51
2022/08/17 00:46:25;;;;;;;24.90;18.42;;;17.90;99.90;;;;;;5053425;28;20185;-51
2022/08/17 00:48:51;;;;;;;21.38;19.08;;;17.90;99.90;;;;;;5053613;28;20180;-51
2022/08/17 00:51:36;;;;;;;25.55;19.05;;;17.90;99.90;;;;;;5053725;28;20240;-52
2022/08/17 00:54:09;;;;;;;23.15;19.25;;;17.90;99.90;;;;;;5053802;28;20544;-51
2022/08/17 00:57:06;;;;;;;26.88;20.33;;;17.90;99.90;;;;;;5053744;28;20180;-51
2022/08/17 00:59:37;;;;;;;28.95;21.52;;;17.90;99.90;;;;;;5053116;28;20272;-52
2022/08/17 01:02:05;;;;;;;34.83;21.50;;;17.90;99.90;;;;;;5053651;28;20219;-50
2022/08/17 01:04:32;;;;;;;32.85;21.40;;;17.80;99.90;;;;;;5053656;28;20244;-50
2022/08/17 01:07:00;;;;;;;29.70;21.20;;;17.90;99.90;;;;;;5053483;28;20711;-50
2022/08/17 01:09:26;;;;;;;23.77;20.95;;;17.80;99.90;;;;;;5053382;28;20579;-50
2022/08/17 01:11:52;;;;;;;32.95;22.27;;;17.90;99.90;;;;;;5053349;28;20662;-50
2022/08/17 01:14:20;;;;;;;34.40;21.63;;;17.80;99.90;;;;;;5051970;28;20177;-51
2022/08/17 01:16:48;;;;;;;27.65;22.15;;;17.80;99.90;;;;;;5052468;28;20201;-51
2022/08/17 01:19:19;;;;;;;30.90;21.95;;;17.80;99.90;;;;;;5051824;28;20563;-51
2022/08/17 01:21:55;;;;;;;30.55;21.70;;;17.80;99.90;;;;;;5053301;28;20173;-50
2022/08/17 01:24:21;;;;;;;32.72;23.52;;;17.90;99.90;;;;;;5053097;28;20173;-51
2022/08/17 01:26:47;;;;;;;29.73;23.40;;;17.90;99.90;;;;;;5053067;28;20173;-51
2022/08/17 01:29:13;;;;;;;29.83;22.60;;;17.90;99.90;;;;;;5053211;28;20178;-51
2022/08/17 01:31:49;;;;;;;30.88;23.30;;;17.90;99.90;;;;;;5052852;28;20701;-51
2022/08/17 01:34:16;;;;;;;29.08;22.92;;;17.90;99.90;;;;;;5052953;28;20172;-51
2022/08/17 01:36:45;;;;;;;31.23;22.52;;;18.00;99.90;;;;;;5052839;28;20534;-51
2022/08/17 01:39:36;;;;;;;32.60;24.02;;;17.90;99.90;;;;;;5052902;28;20169;-51
2022/08/17 01:42:09;;;;;;;32.13;23.45;;;17.90;99.90;;;;;;5052709;28;20324;-52
2022/08/17 01:44:35;;;;;;;29.30;22.80;;;18.00;99.90;;;;;;5052865;28;20170;-50
2022/08/17 01:47:02;;;;;;;34.30;22.52;;;17.90;99.90;;;;;;5051346;28;20616;-51
2022/08/17 01:49:28;;;;;;;37.13;23.58;;;17.90;99.90;;;;;;5052676;28;20177;-51
2022/08/17 01:51:54;;;;;;;34.00;23.98;;;17.90;99.90;;;;;;5052883;28;20260;-51
2022/08/17 01:54:20;;;;;;;34.30;24.80;;;17.90;99.90;;;;;;5052788;28;20173;-51
2022/08/17 01:56:50;;;;;;;35.13;24.50;;;17.90;99.90;;;;;;5052586;28;20260;-51
2022/08/17 01:59:18;;;;;;;33.58;24.23;;;17.90;99.90;;;;;;5052463;28;20161;-50
2022/08/17 02:01:45;;;;;;;32.15;25.33;;;17.90;99.90;;;;;;5052413;28;20173;-50
2022/08/17 02:04:11;;;;;;;35.03;25.77;;;17.90;99.90;;;;;;5052658;28;20274;-51
2022/08/17 02:06:39;;;;;;;35.30;25.45;;;17.90;99.90;;;;;;5052293;28;20650;-51
2022/08/17 02:09:06;;;;;;;34.60;25.98;;;17.90;99.90;;;;;;5052455;28;20290;-51
2022/08/17 02:11:36;;;;;;;36.25;27.02;;;17.90;99.90;;;;;;5052075;28;20250;-50
2022/08/17 02:14:03;;;;;;;30.95;24.90;;;17.90;99.90;;;;;;5052152;28;20177;-51
2022/08/17 02:16:34;;;;;;;37.33;25.85;;;17.90;99.90;;;;;;5052101;28;20184;-52
2022/08/17 02:19:00;;;;;;;37.83;26.92;;;18.00;99.90;;;;;;5052046;28;20176;-52
2022/08/17 02:21:26;;;;;;;33.85;26.45;;;17.90;99.90;;;;;;5052250;28;20181;-52
2022/08/17 02:23:52;;;;;;;34.63;26.05;;;18.00;99.90;;;;;;5051989;28;20162;-52
2022/08/17 02:26:18;;;;;;;39.78;27.27;;;18.00;99.90;;;;;;5051937;28;20196;-52
2022/08/17 02:28:44;;;;;;;34.13;24.90;;;18.00;99.90;;;;;;5050785;28;20629;-52
2022/08/17 02:31:11;;;;;;;32.70;24.67;;;18.00;99.90;;;;;;5051924;28;20262;-51
2022/08/17 02:33:38;;;;;;;36.90;26.25;;;18.00;99.90;;;;;;5051998;28;20200;-52
2022/08/17 02:36:07;;;;;;;36.53;27.17;;;18.00;99.90;;;;;;5051782;28;20209;-51
2022/08/17 02:38:33;;;;;;;35.75;27.83;;;18.00;99.90;;;;;;5051650;28;20162;-51
2022/08/17 02:40:59;;;;;;;40.58;26.95;;;18.00;99.90;;;;;;5051427;28;20221;-51
2022/08/17 02:43:26;;;;;;;35.78;26.35;;;18.00;99.90;;;;;;5051599;28;20169;-51
2022/08/17 02:45:53;;;;;;;43.53;28.17;;;18.00;99.90;;;;;;5051750;28;20204;-51
2022/08/17 02:48:18;;;;;;;36.97;26.58;;;18.00;99.90;;;;;;5051501;28;20651;-51
2022/08/17 02:50:44;;;;;;;35.53;28.17;;;18.00;99.90;;;;;;5051329;28;20256;-51
2022/08/17 02:53:10;;;;;;;39.33;28.27;;;18.10;99.90;;;;;;5051453;28;20252;-52
2022/08/17 02:55:39;;;;;;;36.97;27.60;;;18.10;99.90;;;;;;5051421;28;20165;-51
2022/08/17 02:58:05;;;;;;;38.95;26.85;;;18.00;99.90;;;;;;5051239;28;20170;-51
2022/08/17 03:00:34;;;;;;;37.92;27.77;;;18.10;99.90;;;;;;5051283;28;20657;-51
2022/08/17 03:03:01;;;;;;;39.60;28.30;;;18.00;99.90;;;;;;5051237;28;20166;-51
2022/08/17 03:05:29;;;;;;;38.90;27.90;;;18.10;99.90;;;;;;5051315;28;20227;-52
2022/08/17 03:07:55;;;;;;;39.80;29.13;;;18.10;99.90;;;;;;5051278;28;20169;-51
2022/08/17 03:10:23;;;;;;;43.70;29.88;;;18.10;99.90;;;;;;5051052;28;20293;-51
2022/08/17 03:12:50;;;;;;;38.55;29.17;;;18.10;99.90;;;;;;5051313;28;20187;-51
2022/08/17 03:15:21;;;;;;;43.60;29.15;;;18.10;99.90;;;;;;5051134;28;20165;-51
2022/08/17 03:17:46;;;;;;;44.50;29.45;;;18.10;99.90;;;;;;5051210;28;20190;-51
2022/08/17 03:20:13;;;;;;;40.42;29.05;;;18.10;99.90;;;;;;5051044;28;20643;-51
2022/08/17 03:22:42;;;;;;;37.83;28.88;;;18.10;99.90;;;;;;5050904;28;20169;-51
2022/08/17 03:25:10;;;;;;;38.65;28.60;;;18.10;99.90;;;;;;5050900;28;20259;-50
2022/08/17 03:27:37;;;;;;;40.97;29.60;;;18.20;99.90;;;;;;5050987;28;20204;-52
2022/08/17 03:30:04;;;;;;;41.25;31.10;;;18.20;99.90;;;;;;5050753;28;20224;-51
2022/08/17 03:32:37;;;;;;;38.55;28.83;;;18.20;99.90;;;;;;5051314;28;20248;-50
2022/08/17 03:35:03;;;;;;;37.95;29.23;;;18.20;99.90;;;;;;5050870;28;20165;-50
2022/08/17 03:37:29;;;;;;;41.85;31.10;;;18.20;99.90;;;;;;5050702;28;20177;-51
2022/08/17 03:39:55;;;;;;;46.97;31.45;;;18.20;99.90;;;;;;5050373;28;20177;-51
2022/08/17 03:42:23;;;;;;;46.33;31.67;;;18.10;99.90;;;;;;5050523;28;20707;-51
2022/08/17 03:44:50;;;;;;;41.78;30.70;;;18.10;99.90;;;;;;5050657;28;20173;-51
2022/08/17 03:58:13;;;;;;;47.17;29.88;;;18.10;99.90;;;;;;5050791;28;20579;-51
2022/08/17 04:00:44;;;;;;;40.17;29.63;;;18.20;99.90;;;;;;5050412;28;20166;-51
2022/08/17 04:03:11;;;;;;;41.83;29.15;;;18.20;99.90;;;;;;5050776;28;20169;-51
2022/08/17 04:05:37;;;;;;;42.08;29.45;;;18.20;99.90;;;;;;5050465;28;20628;-51
2022/08/17 04:08:03;;;;;;;43.15;29.73;;;18.10;99.90;;;;;;5050485;28;20256;-50
2022/08/17 04:10:29;;;;;;;40.10;30.40;;;18.20;99.90;;;;;;5050661;28;20679;-51
2022/08/17 04:12:57;;;;;;;43.90;30.60;;;18.20;99.90;;;;;;5050369;28;20589;-51
2022/08/17 04:15:23;;;;;;;41.40;29.95;;;18.10;99.90;;;;;;5050700;28;20182;-51
2022/08/17 04:17:49;;;;;;;41.00;29.95;;;18.10;99.90;;;;;;5050393;28;20223;-51
2022/08/17 04:20:17;;;;;;;44.80;30.45;;;18.20;99.90;;;;;;5050490;28;20199;-51
2022/08/17 04:23:02;;;;;;;40.72;29.75;;;18.20;99.90;;;;;;5050376;28;20171;-51
2022/08/17 04:25:31;;;;;;;43.92;29.08;;;18.20;99.90;;;;;;5050173;28;20173;-51
2022/08/17 04:27:58;;;;;;;39.60;28.30;;;18.30;99.90;;;;;;5050306;28;20161;-51
2022/08/17 04:30:25;;;;;;;44.45;29.65;;;18.20;99.90;;;;;;5050404;28;20209;-51
2022/08/17 04:32:57;;;;;;;37.35;27.50;;;18.20;99.90;;;;;;5050366;28;20208;-51
2022/08/17 04:35:26;;;;;;;33.22;26.63;;;18.20;99.90;;;;;;5050275;28;20170;-51
2022/08/17 04:37:52;;;;;;;43.15;27.95;;;18.20;99.90;;;;;;5050173;28;20256;-51
2022/08/17 04:43:06;;;;;;;34.13;25.20;;;18.20;99.90;;;;;;5050414;28;20660;-51
2022/08/17 04:45:32;;;;;;;32.90;24.83;;;18.20;99.90;;;;;;5050292;28;20200;-51
2022/08/17 04:47:58;;;;;;;31.23;22.75;;;18.20;99.90;;;;;;5050179;28;20220;-51
2022/08/17 04:50:24;;;;;;;31.23;22.27;;;18.20;99.90;;;;;;5050006;28;20209;-51
2022/08/17 04:52:49;;;;;;;31.00;23.40;;;18.10;99.90;;;;;;5051995;28;20179;-51
2022/08/17 04:55:15;;;;;;;34.67;22.85;;;18.10;99.90;;;;;;5053771;28;20181;-51
2022/08/17 04:57:41;;;;;;;31.00;23.85;;;18.10;99.90;;;;;;5053888;28;20166;-51
2022/08/17 05:00:08;;;;;;;26.83;20.65;;;18.10;99.90;;;;;;5053654;28;20161;-51
2022/08/17 05:02:44;;;;;;;28.08;19.98;;;18.10;99.90;;;;;;5053529;28;20173;-50
2022/08/17 05:05:10;;;;;;;29.35;20.33;;;18.10;99.90;;;;;;5053415;28;20180;-50
2022/08/17 05:07:35;;;;;;;24.50;19.45;;;18.10;99.90;;;;;;5053596;28;20176;-50
2022/08/17 05:10:01;;;;;;;25.23;18.48;;;18.10;99.90;;;;;;5053422;28;20690;-51
2022/08/17 05:12:27;;;;;;;24.50;18.27;;;18.10;99.90;;;;;;5053388;28;20173;-50
2022/08/17 05:14:52;;;;;;;22.10;17.75;;;18.10;99.90;;;;;;5053207;28;20173;-52
2022/08/17 05:17:18;;;;;;;22.88;17.50;;;18.10;99.90;;;;;;5053352;28;20177;-51
2022/08/17 05:19:43;;;;;;;23.23;16.77;;;18.20;99.90;;;;;;5053212;28;20648;-50
2022/08/17 05:22:09;;;;;;;22.17;17.70;;;18.20;99.90;;;;;;5053243;28;20204;-51
2022/08/17 05:24:35;;;;;;;25.15;16.60;;;18.20;99.90;;;;;;5053290;28;20178;-51
2022/08/17 05:27:00;;;;;;;25.67;17.38;;;18.20;99.90;;;;;;5053527;28;20659;-52
2022/08/17 05:29:26;;;;;;;19.00;15.32;;;18.20;99.90;;;;;;5053077;28;20165;-51
2022/08/17 05:31:53;;;;;;;28.30;16.10;;;18.20;99.90;;;;;;5052864;28;20213;-52
2022/08/17 05:34:18;;;;;;;21.85;16.27;;;18.10;99.90;;;;;;5052935;28;20184;-51
2022/08/17 05:36:44;;;;;;;21.77;16.00;;;18.10;99.90;;;;;;5053130;28;20177;-52
2022/08/17 05:39:12;;;;;;;19.05;15.75;;;18.20;99.90;;;;;;5052812;28;20224;-50
2022/08/17 05:41:37;;;;;;;23.70;14.20;;;18.20;99.90;;;;;;5052564;28;20228;-50
2022/08/17 05:44:03;;;;;;;20.08;15.00;;;18.10;99.90;;;;;;5052783;28;20173;-51
2022/08/17 05:46:34;;;;;;;17.27;14.75;;;18.10;99.90;;;;;;5052749;28;20256;-51
2022/08/17 05:49:09;;;;;;;18.67;15.05;;;18.10;99.90;;;;;;5052647;28;20173;-51
2022/08/17 05:51:47;;;;;;;17.52;13.50;;;18.20;99.90;;;;;;5052636;28;20208;-50
2022/08/17 05:54:26;;;;;;;21.58;14.07;;;18.10;99.90;;;;;;5052540;28;20165;-50
2022/08/17 05:57:24;;;;;;;17.80;13.45;;;18.20;99.90;;;;;;5052514;28;20165;-50
2022/08/17 06:00:15;;;;;;;16.35;12.82;;;18.20;99.90;;;;;;5052548;28;20215;-52
2022/08/17 06:02:56;;;;;;;15.65;12.05;;;18.10;99.90;;;;;;5052286;28;20169;-51
2022/08/17 06:05:42;;;;;;;15.70;12.82;;;18.10;99.90;;;;;;5052230;28;20636;-51
2022/08/17 06:08:44;;;;;;;15.15;11.65;;;18.10;99.90;;;;;;5052299;28;20272;-51
2022/08/17 06:11:27;;;;;;;16.13;12.07;;;18.10;99.90;;;;;;5050121;28;20220;-51
2022/08/17 06:14:24;;;;;;;14.73;11.95;;;18.20;99.90;;;;;;5052204;28;20191;-51
2022/08/17 06:16:55;;;;;;;13.77;11.52;;;18.20;99.90;;;;;;5052192;28;20571;-51
2022/08/17 06:19:23;;;;;;;13.18;10.77;;;18.20;99.90;;;;;;5052056;28;20161;-51
2022/08/17 06:21:53;;;;;;;15.20;11.80;;;18.30;99.90;;;;;;5052067;28;20173;-51
2022/08/17 06:24:37;;;;;;;16.13;10.63;;;18.30;99.90;;;;;;5051939;28;20502;-51
2022/08/17 06:27:11;;;;;;;12.38;10.15;;;18.30;99.90;;;;;;5051994;28;20173;-51
2022/08/17 06:29:37;;;;;;;12.43;10.30;;;18.30;99.90;;;;;;5051918;28;20199;-51
2022/08/17 06:32:07;;;;;;;11.65;9.73;;;18.40;99.90;;;;;;5051823;28;20244;-51
2022/08/17 06:34:33;;;;;;;11.63;9.30;;;18.40;99.90;;;;;;5051811;28;20166;-50
2022/08/17 06:37:20;;;;;;;10.40;8.23;;;18.40;99.90;;;;;;5051714;28;20235;-51
2022/08/17 06:40:16;;;;;;;15.48;8.88;;;18.50;99.90;;;;;;5051628;28;20226;-50
2022/08/17 06:42:51;;;;;;;11.77;9.07;;;18.50;99.90;;;;;;5051466;28;20216;-51
2022/08/17 06:45:23;;;;;;;11.52;9.50;;;18.50;99.90;;;;;;5051567;28;20185;-51
2022/08/17 06:48:06;;;;;;;11.13;9.85;;;18.60;99.90;;;;;;5051622;28;20296;-51
2022/08/17 06:50:35;;;;;;;11.75;8.52;;;18.60;99.90;;;;;;5051518;28;20203;-51
2022/08/17 06:53:19;;;;;;;11.52;8.38;;;17.90;99.90;;;;;;5051545;28;20168;-51
2022/08/17 06:56:00;;;;;;;10.38;9.25;;;18.60;99.90;;;;;;5051335;28;20252;-51
2022/08/17 06:58:30;;;;;;;12.52;9.52;;;18.70;99.90;;;;;;5051454;28;20212;-51
2022/08/17 07:01:00;;;;;;;11.40;8.82;;;18.60;99.90;;;;;;5051305;28;20231;-51
2022/08/17 07:03:53;;;;;;;11.40;8.50;;;18.60;99.90;;;;;;5051254;28;20191;-52
2022/08/17 07:06:23;;;;;;;12.90;8.60;;;18.70;99.90;;;;;;5050874;28;20272;-51
2022/08/17 07:09:33;;;;;;;13.18;9.18;;;18.80;99.90;;;;;;5051376;28;20207;-51
2022/08/17 07:12:14;;;;;;;11.32;8.07;;;18.80;99.90;;;;;;5008950;28;20762;-51
2022/08/17 07:14:52;;;;;;;8.80;7.15;;;18.80;99.90;;;;;;5008688;28;20178;-51
2022/08/17 07:17:20;;;;;;;11.70;7.88;;;18.80;99.90;;;;;;5036200;28;20640;-51
2022/08/17 07:19:53;;;;;;;13.68;7.88;;;18.80;99.90;;;;;;5050996;28;20176;-51
2022/08/17 07:22:40;;;;;;;10.45;7.32;;;18.90;99.90;;;;;;5050922;28;20187;-51
2022/08/17 07:25:09;;;;;;;13.18;7.72;;;18.90;99.90;;;;;;5050812;28;20169;-51
2022/08/17 07:27:38;;;;;;;8.63;7.32;;;19.00;99.90;;;;;;5050855;28;20252;-51
2022/08/17 07:30:07;;;;;;;10.15;7.20;;;19.00;99.90;;;;;;5051012;28;20204;-52
2022/08/17 07:32:44;;;;;;;9.07;7.68;;;19.10;99.90;;;;;;5050926;28;20698;-51
2022/08/17 07:35:15;;;;;;;12.65;7.93;;;19.20;99.90;;;;;;5050717;28;20185;-52
2022/08/17 07:37:44;;;;;;;12.07;7.47;;;19.20;99.90;;;;;;5050664;28;20231;-52
2022/08/17 07:40:18;;;;;;;14.13;7.65;;;19.20;99.90;;;;;;5050794;28;20177;-52
2022/08/17 07:43:05;;;;;;;12.48;8.70;;;19.30;99.90;;;;;;5050449;28;20319;-52
2022/08/17 07:48:21;;;;;;;15.55;7.57;;;19.40;99.90;;;;;;5051054;28;20694;-52
2022/08/17 07:50:46;;;;;;;10.93;7.35;;;19.50;99.90;;;;;;5050704;28;20200;-52
2022/08/17 07:53:22;;;;;;;9.77;7.00;;;19.60;99.90;;;;;;5049362;28;20644;-52
2022/08/17 07:55:49;;;;;;;11.38;7.20;;;19.80;99.90;;;;;;5051136;28;20180;-52
2022/08/17 07:58:18;;;;;;;13.05;6.85;;;20.00;99.90;;;;;;5050715;28;20176;-52
2022/08/17 08:00:45;;;;;;;9.05;6.45;;;20.40;99.90;;;;;;5050629;28;20161;-52
2022/08/17 08:03:24;;;;;;;8.80;6.40;;;20.50;99.90;;;;;;5050551;28;20177;-50
2022/08/17 08:05:58;;;;;;;12.93;6.15;;;20.60;99.90;;;;;;5050703;28;20177;-51
2022/08/17 08:08:36;;;;;;;11.25;6.38;;;20.40;99.90;;;;;;5050499;28;20173;-52
2022/08/17 08:11:11;;;;;;;13.05;6.50;;;20.40;99.90;;;;;;5050362;28;20207;-52
2022/08/17 08:13:41;;;;;;;11.77;6.85;;;20.40;99.90;;;;;;5050486;28;20169;-52
2022/08/17 08:16:16;;;;;;;12.88;7.35;;;20.60;99.90;;;;;;5050484;28;20173;-52
2022/08/17 08:18:45;;;;;;;14.82;7.60;;;20.70;99.90;;;;;;5050386;28;20161;-51
2022/08/17 08:21:18;;;;;;;9.55;5.93;;;20.60;99.90;;;;;;5050577;28;20189;-52
2022/08/17 08:24:18;;;;;;;8.25;6.00;;;20.70;99.90;;;;;;5050583;28;20177;-52
2022/08/17 08:26:55;;;;;;;7.05;5.60;;;20.60;99.90;;;;;;5052126;28;20643;-52
2022/08/17 08:29:48;;;;;;;8.85;5.20;;;20.50;99.90;;;;;;5054198;28;20165;-51
2022/08/17 08:32:50;;;;;;;9.77;5.00;;;20.50;99.90;;;;;;5054203;28;20185;-52
2022/08/17 08:35:30;;;;;;;8.60;4.65;;;20.40;99.90;;;;;;5054044;28;20180;-52
2022/08/17 08:38:22;;;;;;;8.02;4.80;;;20.40;99.90;;;;;;5054002;28;20208;-51
2022/08/17 08:41:08;;;;;;;7.80;4.55;;;20.40;99.90;;;;;;5054062;28;20231;-51
2022/08/17 08:43:59;;;;;;;7.68;4.32;;;20.30;99.90;;;;;;5053866;28;20185;-52
2022/08/17 08:46:34;;;;;;;5.82;3.97;;;20.20;99.90;;;;;;5053931;28;20574;-51
2022/08/17 08:49:17;;;;;;;6.97;4.00;;;20.10;99.90;;;;;;5053937;28;20191;-51
2022/08/17 08:51:59;;;;;;;11.30;4.20;;;20.00;99.90;;;;;;5053760;28;20205;-51
2022/08/17 08:54:34;;;;;;;8.02;4.05;;;19.90;99.90;;;;;;5053727;28;20182;-50
2022/08/17 08:57:27;;;;;;;6.85;3.88;;;19.90;99.90;;;;;;5052282;28;20169;-51
2022/08/17 09:00:14;;;;;;;5.13;3.88;;;19.90;99.90;;;;;;5047691;28;20684;-53
2022/08/17 09:02:55;;;;;;;6.35;4.20;;;20.00;99.90;;;;;;5052264;28;20260;-51
2022/08/17 09:05:33;;;;;;;5.10;4.00;;;20.10;99.90;;;;;;5053659;28;20319;-51
2022/08/17 09:08:28;;;;;;;8.95;4.70;;;20.20;99.90;;;;;;5053589;28;20246;-51
2022/08/17 09:11:02;;;;;;;7.63;4.53;;;20.50;99.90;;;;;;5053345;28;20262;-52
2022/08/17 09:13:38;;;;;;;7.47;4.80;;;20.90;99.90;;;;;;5053153;28;20175;-51
2022/08/17 09:16:07;;;;;;;9.60;5.13;;;21.30;99.90;;;;;;5053306;28;20243;-51
2022/08/17 09:18:38;;;;;;;6.43;4.15;;;21.70;99.90;;;;;;5053345;28;20173;-51
2022/08/17 09:21:20;;;;;;;5.90;4.25;;;22.40;99.90;;;;;;5053281;28;20583;-52
2022/08/17 09:24:03;;;;;;;8.68;4.28;;;22.80;99.90;;;;;;5053539;28;20169;-52
2022/08/17 09:26:47;;;;;;;9.07;4.88;;;22.80;99.90;;;;;;5053106;28;20624;-52
2022/08/17 09:29:15;;;;;;;9.70;5.20;;;22.80;99.90;;;;;;5053121;28;20177;-52
2022/08/17 09:32:18;;;;;;;9.35;4.78;;;22.40;99.90;;;;;;5052848;28;20200;-52
2022/08/17 09:34:53;;;;;;;10.45;5.50;;;22.10;99.90;;;;;;5052955;28;20197;-52
2022/08/17 09:37:36;;;;;;;14.07;5.05;;;22.10;99.90;;;;;;5052839;28;20215;-52
2022/08/17 09:40:08;;;;;;;7.18;5.55;;;21.90;99.90;;;;;;5052905;28;20181;-52
2022/08/17 09:43:24;;;;;;;9.13;5.32;;;21.70;99.90;;;;;;5052686;28;20753;-51
2022/08/17 09:46:22;;;;;;;10.00;5.80;;;21.30;99.90;;;;;;5010837;28;20191;-51
2022/08/17 09:49:02;;;;;;;11.88;5.65;;;21.00;99.90;;;;;;5005509;28;20284;-51
2022/08/17 09:51:31;;;;;;;10.48;5.60;;;20.80;99.90;;;;;;5043265;28;20252;-51
2022/08/17 09:53:58;;;;;;;11.75;6.45;;;20.80;99.90;;;;;;5052722;28;20204;-51
2022/08/17 09:56:56;;;;;;;10.10;6.50;;;20.30;99.90;;;;;;5051324;28;20180;-52
2022/08/17 10:00:06;;;;;;;13.40;7.38;;;20.50;99.90;;;;;;5050304;28;20663;-52
2022/08/17 10:03:15;;;;;;;12.98;6.93;;;20.40;99.90;;;;;;5046509;28;20188;-52
2022/08/17 10:06:05;;;;;;;13.43;7.07;;;20.40;99.90;;;;;;5052530;28;20176;-52
2022/08/17 10:08:42;;;;;;;13.50;7.28;;;20.40;99.90;;;;;;5052516;28;20169;-52
2022/08/17 10:11:22;;;;;;;13.90;6.93;;;20.50;99.90;;;;;;5052230;28;20311;-52
2022/08/17 10:14:01;;;;;;;10.27;6.72;;;20.50;99.90;;;;;;5052595;28;20177;-51
2022/08/17 10:16:37;;;;;;;12.30;6.95;;;20.40;99.90;;;;;;5052554;28;20169;-51
2022/08/17 10:19:19;;;;;;;9.18;6.80;;;20.50;99.90;;;;;;5052246;28;20180;-50
2022/08/17 10:27:34;;;;;;;12.60;6.97;;;20.40;99.90;;;;;;5051970;28;20662;-50
2022/08/17 10:30:03;;;;;;;12.68;7.45;;;20.40;99.90;;;;;;5051739;28;20203;-51
2022/08/17 10:32:47;;;;;;;11.70;7.68;;;20.40;99.90;;;;;;5051977;28;20624;-51
2022/08/17 10:35:32;;;;;;;18.50;9.02;;;20.40;99.90;;;;;;5050525;28;20227;-51
2022/08/17 10:38:21;;;;;;;16.85;8.77;;;20.40;99.90;;;;;;5051769;28;20511;-52
2022/08/17 10:40:54;;;;;;;13.18;8.05;;;20.40;99.90;;;;;;5045104;28;20193;-52
2022/08/17 10:43:35;;;;;;;14.07;8.88;;;20.50;99.90;;;;;;5051828;28;20212;-52
2022/08/17 10:46:34;;;;;;;15.48;8.10;;;20.70;99.90;;;;;;5051778;28;20169;-52
2022/08/17 10:49:19;;;;;;;14.13;7.93;;;21.00;99.90;;;;;;5051295;28;20240;-52
2022/08/17 10:51:47;;;;;;;13.65;8.27;;;21.50;99.90;;;;;;5051290;28;20217;-52
2022/08/17 10:54:33;;;;;;;12.80;7.10;;;22.00;99.90;;;;;;5051605;28;20252;-52
2022/08/17 10:56:59;;;;;;;11.38;7.75;;;22.50;99.90;;;;;;5051427;28;20174;-52
2022/08/17 10:59:34;;;;;;;13.88;7.38;;;22.70;99.90;;;;;;5051382;28;20168;-52
2022/08/17 11:02:24;;;;;;;12.70;6.93;;;23.30;99.90;;;;;;5051319;28;20194;-52
2022/08/17 11:04:50;;;;;;;15.75;6.43;;;24.10;99.90;;;;;;5051039;28;20173;-52
2022/08/17 11:07:18;;;;;;;12.30;5.97;;;24.50;99.90;;;;;;5051182;28;20673;-52
2022/08/17 11:10:29;;;;;;;10.90;5.82;;;24.30;99.90;;;;;;5051101;28;20615;-51
2022/08/17 11:13:26;;;;;;;9.73;5.63;;;23.80;99.90;;;;;;5034975;28;20199;-52
2022/08/17 11:16:10;;;;;;;6.78;4.63;;;23.40;99.90;;;;;;5051067;28;20185;-52
2022/08/17 11:19:03;;;;;;;11.27;5.25;;;23.00;99.90;;;;;;5051196;28;20180;-52
2022/08/17 11:21:56;;;;;;;6.95;5.40;;;22.80;99.90;;;;;;5051054;28;20196;-52
2022/08/17 11:24:39;;;;;;;8.95;5.30;;;22.60;99.90;;;;;;5050821;28;20177;-51
2022/08/17 11:27:18;;;;;;;8.75;5.43;;;22.80;99.90;;;;;;5051158;28;20238;-51
2022/08/17 11:29:58;;;;;;;8.13;5.60;;;23.20;99.90;;;;;;5050942;28;20235;-51
2022/08/17 11:32:45;;;;;;;9.02;5.38;;;23.10;99.90;;;;;;5050847;28;20268;-52
2022/08/17 11:35:24;;;;;;;7.80;5.60;;;22.90;99.90;;;;;;5050800;28;20476;-51
2022/08/17 11:38:28;;;;;;;14.10;5.32;;;22.40;99.90;;;;;;5050871;28;20241;-51
2022/08/17 11:41:35;;;;;;;10.40;5.65;;;22.30;99.90;;;;;;5050589;28;20177;-52
2022/08/17 11:44:14;;;;;;;11.75;5.95;;;22.10;99.90;;;;;;5034413;28;20643;-51
2022/08/17 11:52:37;;;;;;;8.85;6.05;;;21.80;99.90;;;;;;5050493;28;20226;-52
2022/08/17 11:55:04;;;;;;;9.32;6.13;;;21.70;99.90;;;;;;5050480;28;20539;-52
2022/08/17 11:57:44;;;;;;;11.35;5.97;;;21.70;99.90;;;;;;5050484;28;20182;-51
2022/08/17 12:00:50;;;;;;;13.05;6.43;;;21.60;99.90;;;;;;5050714;28;20172;-51
2022/08/17 12:03:22;;;;;;;12.13;6.35;;;21.60;99.90;;;;;;5054654;28;20188;-52
2022/08/17 12:05:52;;;;;;;9.30;5.72;;;21.70;99.90;;;;;;5054580;28;20222;-51
2022/08/17 12:08:21;;;;;;;9.48;5.72;;;21.80;99.90;;;;;;5054883;28;20169;-52
2022/08/17 12:11:05;;;;;;;11.13;6.22;;;22.30;99.90;;;;;;5054517;28;20213;-52
2022/08/17 12:13:53;;;;;;;13.13;5.93;;;22.80;99.90;;;;;;5054572;28;20653;-51
2022/08/17 12:16:20;;;;;;;7.50;5.10;;;23.30;99.90;;;;;;5054015;28;20276;-52
2022/08/17 12:18:58;;;;;;;8.65;4.93;;;23.80;99.90;;;;;;5054451;28;20170;-52
2022/08/17 12:21:47;;;;;;;9.52;4.85;;;24.40;99.90;;;;;;5054425;28;20199;-52
2022/08/17 12:24:31;;;;;;;10.27;4.68;;;25.50;99.90;;;;;;5054352;28;20161;-52
2022/08/17 12:27:01;;;;;;;8.48;4.40;;;25.70;99.90;;;;;;5054225;28;20180;-53
2022/08/17 12:29:28;;;;;;;7.32;4.05;;;26.50;99.90;;;;;;5054433;28;20165;-53
2022/08/17 12:31:55;;;;;;;6.40;3.40;;;27.90;99.90;;;;;;5054104;28;20263;-52
2022/08/17 12:34:34;;;;;;;14.07;3.90;;;28.90;99.90;;;;;;5054154;28;20166;-52
2022/08/17 12:37:05;;;;;;;5.13;2.95;;;29.90;99.90;;;;;;5054115;28;20177;-53
2022/08/17 12:39:31;;;;;;;5.93;3.20;;;30.90;99.90;;;;;;5054238;28;20173;-52
2022/08/17 12:41:59;;;;;;;10.13;3.60;;;32.00;99.90;;;;;;5054083;28;20253;-53
2022/08/17 12:44:34;;;;;;;5.63;3.20;;;32.70;99.90;;;;;;5054132;28;20223;-53
2022/08/17 12:47:06;;;;;;;6.72;2.75;;;33.00;99.90;;;;;;5053944;28;20291;-53
2022/08/17 12:49:41;;;;;;;9.93;2.97;;;33.70;99.90;;;;;;5053922;28;20173;-53
2022/08/17 12:52:19;;;;;;;5.10;2.72;;;34.20;99.90;;;;;;5054292;28;20297;-53
2022/08/17 12:55:01;;;;;;;4.88;2.70;;;34.40;99.90;;;;;;5053882;28;20651;-53
2022/08/17 12:57:32;;;;;;;6.97;2.67;;;34.00;99.90;;;;;;5053830;28;20176;-54
2022/08/17 13:00:11;;;;;;;4.45;2.67;;;32.90;99.90;;;;;;5053636;28;20693;-51
2022/08/17 13:02:42;;;;;;;5.22;3.00;;;32.50;99.90;;;;;;5053815;28;20188;-51
2022/08/17 13:05:27;;;;;;;3.05;2.08;;;33.00;99.90;;;;;;5053808;28;20173;-52
2022/08/17 13:07:54;;;;;;;8.60;2.70;;;33.40;99.90;;;;;;5053550;28;20243;-53
2022/08/17 13:10:41;;;;;;;6.72;2.70;;;32.60;99.90;;;;;;5053397;28;20280;-52
2022/08/17 13:13:37;;;;;;;5.07;2.33;;;31.80;99.90;;;;;;5052392;28;20189;-53
2022/08/17 13:16:05;;;;;;;4.07;2.20;;;30.90;99.90;;;;;;5053404;28;20177;-52
2022/08/17 13:19:04;;;;;;;8.35;2.22;;;29.60;99.90;;;;;;5053333;28;20188;-51
2022/08/17 13:21:32;;;;;;;6.45;2.10;;;28.10;99.90;;;;;;5053290;28;20188;-52
2022/08/17 13:24:03;;;;;;;5.00;2.80;;;26.60;99.90;;;;;;5053163;28;20169;-51
2022/08/17 13:26:37;;;;;;;4.80;2.20;;;26.00;99.90;;;;;;5051989;28;20640;-52
2022/08/17 13:29:15;;;;;;;7.47;2.33;;;25.40;99.90;;;;;;5053049;28;20199;-52
2022/08/17 13:31:42;;;;;;;6.25;1.92;;;25.20;99.90;;;;;;5052809;28;20201;-51
2022/08/17 13:34:40;;;;;;;6.47;1.60;;;24.70;99.90;;;;;;5053086;28;20173;-51
2022/08/17 13:37:29;;;;;;;4.13;1.50;;;24.40;99.90;;;;;;5044894;28;20226;-52
2022/08/17 13:40:10;;;;;;;4.97;1.73;;;24.50;99.90;;;;;;5053115;28;20276;-52
2022/08/17 13:42:41;;;;;;;4.63;1.92;;;24.40;99.90;;;;;;5052856;28;20239;-53